createdAt,value
2018-12-23T00:01:25.638Z,8.85
2018-12-23T00:03:53.798Z,8.85
2018-12-23T00:06:22.041Z,8.84
2018-12-23T00:08:50.482Z,8.82
2018-12-23T00:11:18.743Z,8.87
2018-12-23T00:13:46.994Z,8.82
2018-12-23T00:16:15.410Z,8.76
2018-12-23T00:18:43.858Z,8.70
2018-12-23T00:21:12.270Z,8.68
2018-12-23T00:23:40.515Z,8.70
2018-12-23T00:26:09.479Z,8.66
2018-12-23T00:28:37.663Z,8.50
2018-12-23T00:31:06.755Z,8.46
2018-12-23T00:33:34.873Z,8.44
2018-12-23T00:36:03.040Z,8.38
2018-12-23T00:38:31.595Z,8.31
2018-12-23T00:40:59.837Z,8.18
2018-12-23T00:43:28.492Z,8.13
2018-12-23T00:45:56.770Z,8.14
2018-12-23T00:48:26.085Z,7.98
2018-12-23T00:50:54.304Z,7.96
2018-12-23T00:53:22.418Z,7.95
2018-12-23T00:55:50.539Z,7.88
2018-12-23T00:58:18.677Z,7.84
2018-12-23T01:00:46.796Z,7.82
2018-12-23T01:03:15.130Z,7.79
2018-12-23T01:05:43.541Z,7.77
2018-12-23T01:08:11.819Z,7.80
2018-12-23T01:10:39.937Z,7.86
2018-12-23T01:13:08.079Z,7.87
2018-12-23T01:15:36.266Z,7.91
2018-12-23T01:18:05.736Z,7.88
2018-12-23T01:20:33.970Z,7.89
2018-12-23T01:23:02.479Z,7.90
2018-12-23T01:25:30.843Z,7.98
2018-12-23T01:27:59.279Z,7.93
2018-12-23T01:30:27.446Z,7.85
2018-12-23T01:32:55.614Z,7.75
2018-12-23T01:35:23.761Z,7.67
2018-12-23T01:37:51.949Z,7.60
2018-12-23T01:40:20.098Z,7.60
2018-12-23T01:42:48.247Z,7.62
2018-12-23T01:45:16.422Z,7.70
2018-12-23T01:47:44.570Z,7.78
2018-12-23T01:50:13.254Z,7.80
2018-12-23T01:52:41.366Z,7.84
2018-12-23T01:55:09.704Z,7.85
2018-12-23T01:57:38.120Z,7.89
2018-12-23T02:00:07.770Z,7.91
2018-12-23T02:02:35.981Z,7.95
2018-12-23T02:05:04.451Z,7.96
2018-12-23T02:07:32.614Z,8.14
2018-12-23T02:10:00.747Z,8.29
2018-12-23T02:12:28.895Z,8.26
2018-12-23T02:14:57.133Z,8.25
2018-12-23T02:17:25.368Z,8.20
2018-12-23T02:19:53.558Z,8.15
2018-12-23T02:22:21.787Z,8.15
2018-12-23T02:24:50.069Z,8.27
2018-12-23T02:27:18.222Z,8.21
2018-12-23T02:29:46.356Z,8.29
2018-12-23T02:32:14.709Z,8.17
2018-12-23T02:34:43.106Z,8.12
2018-12-23T02:37:11.460Z,8.21
2018-12-23T02:39:40.185Z,8.23
2018-12-23T02:42:10.219Z,8.27
2018-12-23T02:44:38.436Z,8.26
2018-12-23T02:47:06.618Z,8.25
2018-12-23T02:49:34.768Z,8.33
2018-12-23T02:52:02.884Z,8.31
2018-12-23T02:54:31.181Z,8.38
2018-12-23T02:56:59.282Z,8.37
2018-12-23T02:59:27.917Z,8.33
2018-12-23T03:01:56.064Z,8.31
2018-12-23T03:04:24.294Z,8.32
2018-12-23T03:06:52.513Z,8.21
2018-12-23T03:09:20.670Z,8.11
2018-12-23T03:11:48.857Z,8.22
2018-12-23T03:14:16.977Z,8.21
2018-12-23T03:16:45.138Z,8.09
2018-12-23T03:19:13.377Z,8.15
2018-12-23T03:21:41.647Z,8.13
2018-12-23T03:24:09.947Z,8.12
2018-12-23T03:26:38.085Z,8.17
2018-12-23T03:29:06.230Z,8.15
2018-12-23T03:31:34.355Z,8.20
2018-12-23T03:34:02.689Z,8.35
2018-12-23T03:36:30.909Z,8.27
2018-12-23T03:38:59.080Z,8.18
2018-12-23T03:41:27.299Z,8.11
2018-12-23T03:43:55.432Z,8.11
2018-12-23T03:46:23.565Z,8.10
2018-12-23T03:48:52.031Z,8.13
2018-12-23T03:51:20.265Z,8.15
2018-12-23T03:53:48.449Z,8.26
2018-12-23T03:56:16.944Z,8.26
2018-12-23T03:58:45.254Z,8.33
2018-12-23T04:01:13.389Z,8.32
2018-12-23T04:03:42.464Z,8.30
2018-12-23T04:06:10.626Z,8.40
2018-12-23T04:08:38.829Z,8.34
2018-12-23T04:11:06.969Z,8.30
2018-12-23T04:13:35.163Z,8.40
2018-12-23T04:16:03.438Z,8.45
2018-12-23T04:18:31.633Z,8.54
2018-12-23T04:20:59.797Z,8.50
2018-12-23T04:23:27.904Z,8.49
2018-12-23T04:25:56.116Z,8.40
2018-12-23T04:28:24.685Z,8.28
2018-12-23T04:30:52.815Z,8.25
2018-12-23T04:33:21.035Z,8.32
2018-12-23T04:35:49.266Z,8.43
2018-12-23T04:38:17.440Z,8.45
2018-12-23T04:40:45.638Z,8.39
2018-12-23T04:43:13.910Z,8.28
2018-12-23T04:45:42.155Z,8.21
2018-12-23T04:48:10.286Z,8.26
2018-12-23T04:50:38.423Z,8.29
2018-12-23T04:53:06.777Z,8.29
2018-12-23T04:55:35.085Z,8.35
2018-12-23T04:58:03.258Z,8.30
2018-12-23T05:00:31.719Z,8.28
2018-12-23T05:03:00.113Z,8.29
2018-12-23T05:05:28.487Z,8.36
2018-12-23T05:07:56.632Z,8.27
2018-12-23T05:10:24.861Z,8.34
2018-12-23T05:12:52.977Z,8.32
2018-12-23T05:15:21.174Z,8.32
2018-12-23T05:17:49.330Z,8.29
2018-12-23T05:20:17.652Z,8.24
2018-12-23T05:22:45.783Z,8.27
2018-12-23T05:25:14.090Z,8.25
2018-12-23T05:27:42.398Z,8.27
2018-12-23T05:30:10.521Z,8.32
2018-12-23T05:32:38.636Z,8.25
2018-12-23T05:35:06.881Z,8.27
2018-12-23T05:37:35.154Z,8.20
2018-12-23T05:40:03.888Z,8.25
2018-12-23T05:42:32.026Z,8.15
2018-12-23T05:45:00.189Z,8.03
2018-12-23T05:47:28.406Z,8.18
2018-12-23T05:49:56.573Z,8.19
2018-12-23T05:52:25.133Z,8.16
2018-12-23T05:54:53.258Z,8.05
2018-12-23T05:57:21.465Z,8.06
2018-12-23T05:59:49.599Z,8.28
2018-12-23T06:02:17.757Z,8.23
2018-12-23T06:04:46.326Z,8.21
2018-12-23T06:07:14.524Z,8.22
2018-12-23T06:09:42.724Z,8.14
2018-12-23T06:12:10.949Z,8.04
2018-12-23T06:14:39.247Z,8.13
2018-12-23T06:17:07.381Z,8.10
2018-12-23T06:19:35.617Z,7.98
2018-12-23T06:22:03.815Z,8.02
2018-12-23T06:24:32.143Z,7.96
2018-12-23T06:27:00.399Z,8.00
2018-12-23T06:29:28.574Z,7.98
2018-12-23T06:31:56.705Z,8.10
2018-12-23T06:34:24.914Z,8.04
2018-12-23T06:36:53.115Z,8.04
2018-12-23T06:39:21.233Z,8.07
2018-12-23T06:41:49.362Z,8.15
2018-12-23T06:44:17.705Z,8.20
2018-12-23T06:46:45.827Z,8.15
2018-12-23T06:49:13.950Z,8.20
2018-12-23T06:51:42.375Z,8.18
2018-12-23T06:54:10.493Z,8.35
2018-12-23T06:56:38.663Z,8.34
2018-12-23T06:59:06.815Z,8.28
2018-12-23T07:01:35.043Z,8.29
2018-12-23T07:04:03.141Z,8.29
2018-12-23T07:06:31.281Z,8.34
2018-12-23T07:08:59.455Z,8.29
2018-12-23T07:11:27.601Z,8.36
2018-12-23T07:13:55.714Z,8.31
2018-12-23T07:16:23.837Z,8.33
2018-12-23T07:18:52.084Z,8.19
2018-12-23T07:21:20.328Z,8.19
2018-12-23T07:23:48.858Z,8.35
2018-12-23T07:26:16.957Z,8.36
2018-12-23T07:28:45.145Z,8.30
2018-12-23T07:31:13.246Z,8.36
2018-12-23T07:33:41.407Z,8.31
2018-12-23T07:36:09.533Z,8.34
2018-12-23T07:38:38.576Z,8.32
2018-12-23T07:41:06.890Z,8.33
2018-12-23T07:43:35.042Z,8.34
2018-12-23T07:46:03.267Z,8.29
2018-12-23T07:48:31.430Z,8.28
2018-12-23T07:50:59.673Z,8.30
2018-12-23T07:53:27.957Z,8.28
2018-12-23T07:55:56.079Z,8.31
2018-12-23T07:58:24.218Z,8.29
2018-12-23T08:00:52.380Z,8.28
2018-12-23T08:03:20.803Z,8.32
2018-12-23T08:05:49.275Z,8.36
2018-12-23T08:08:17.493Z,8.43
2018-12-23T08:10:45.606Z,8.45
2018-12-23T08:13:13.709Z,8.41
2018-12-23T08:15:42.054Z,8.44
2018-12-23T08:18:10.306Z,8.54
2018-12-23T08:20:38.449Z,8.59
2018-12-23T08:23:06.745Z,8.61
2018-12-23T08:25:35.765Z,8.62
2018-12-23T08:28:04.294Z,8.77
2018-12-23T08:30:32.451Z,8.79
2018-12-23T08:33:00.593Z,8.77
2018-12-23T08:35:28.830Z,8.80
2018-12-23T08:37:57.253Z,8.86
2018-12-23T08:40:25.690Z,8.82
2018-12-23T08:42:53.900Z,8.74
2018-12-23T08:45:22.076Z,8.73
2018-12-23T08:47:50.206Z,8.76
2018-12-23T08:50:18.753Z,8.78
2018-12-23T08:52:46.898Z,8.82
2018-12-23T08:55:15.039Z,8.92
2018-12-23T08:57:43.153Z,9.06
2018-12-23T09:00:11.344Z,9.19
2018-12-23T09:02:39.480Z,9.24
2018-12-23T09:05:07.704Z,9.25
2018-12-23T09:07:35.910Z,9.30
2018-12-23T09:10:04.550Z,9.29
2018-12-23T09:12:32.978Z,9.35
2018-12-23T09:15:01.115Z,9.48
2018-12-23T09:17:29.455Z,9.51
2018-12-23T09:19:57.767Z,9.58
2018-12-23T09:22:26.043Z,9.60
2018-12-23T09:24:54.248Z,9.61
2018-12-23T09:27:23.224Z,9.67
2018-12-23T09:29:51.478Z,9.75
2018-12-23T09:32:19.645Z,9.75
2018-12-23T09:34:47.806Z,9.78
2018-12-23T09:37:15.973Z,9.87
2018-12-23T09:39:44.114Z,9.85
2018-12-23T09:42:12.222Z,9.93
2018-12-23T09:44:40.437Z,10.02
2018-12-23T09:47:08.558Z,10.11
2018-12-23T09:49:36.710Z,10.02
2018-12-23T09:52:04.830Z,9.98
2018-12-23T09:54:33.007Z,10.04
2018-12-23T09:57:01.186Z,10.15
2018-12-23T09:59:29.326Z,10.18
2018-12-23T10:01:57.798Z,10.26
2018-12-23T10:04:26.314Z,10.30
2018-12-23T10:06:54.751Z,10.41
2018-12-23T10:09:22.893Z,10.51
2018-12-23T10:11:51.065Z,10.64
2018-12-23T10:14:19.210Z,10.76
2018-12-23T10:16:47.369Z,10.73
2018-12-23T10:19:15.501Z,10.76
2018-12-23T10:21:43.795Z,10.69
2018-12-23T10:24:12.047Z,10.74
2018-12-23T10:26:40.188Z,10.76
2018-12-23T10:29:08.502Z,10.72
2018-12-23T10:31:36.834Z,10.73
2018-12-23T10:34:05.234Z,10.79
2018-12-23T10:36:33.601Z,10.73
2018-12-23T10:39:01.751Z,10.73
2018-12-23T10:41:29.873Z,10.70
2018-12-23T10:43:58.053Z,10.66
2018-12-23T10:46:26.301Z,10.73
2018-12-23T10:48:54.548Z,10.75
2018-12-23T10:51:22.726Z,10.67
2018-12-23T10:53:50.865Z,10.79
2018-12-23T10:56:19.005Z,10.80
2018-12-23T10:58:47.147Z,10.71
2018-12-23T11:01:15.554Z,10.69
2018-12-23T11:03:43.940Z,10.68
2018-12-23T11:06:12.388Z,10.81
2018-12-23T11:08:40.623Z,10.88
2018-12-23T11:11:08.778Z,10.88
2018-12-23T11:13:37.056Z,10.81
2018-12-23T11:16:05.425Z,10.63
2018-12-23T11:18:33.774Z,10.66
2018-12-23T11:21:01.914Z,10.61
2018-12-23T11:23:30.118Z,10.61
2018-12-23T11:25:58.269Z,10.57
2018-12-23T11:28:26.530Z,10.69
2018-12-23T11:30:54.665Z,10.60
2018-12-23T11:33:22.825Z,10.54
2018-12-23T11:35:51.066Z,10.44
2018-12-23T11:38:19.458Z,10.48
2018-12-23T11:40:47.854Z,10.52
2018-12-23T11:43:16.069Z,10.51
2018-12-23T11:45:44.334Z,10.49
2018-12-23T11:48:12.470Z,10.32
2018-12-23T11:50:40.656Z,10.25
2018-12-23T11:53:08.853Z,10.36
2018-12-23T11:55:36.969Z,10.27
2018-12-23T11:58:05.100Z,10.22
2018-12-23T12:00:33.294Z,10.14
2018-12-23T12:03:01.671Z,10.10
2018-12-23T12:05:29.856Z,10.04
2018-12-23T12:07:58.010Z,10.05
2018-12-23T12:10:26.213Z,10.06
2018-12-23T12:12:54.346Z,10.03
2018-12-23T12:15:22.481Z,10.10
2018-12-23T12:17:50.736Z,9.86
2018-12-23T12:20:18.981Z,10.02
2018-12-23T12:22:47.159Z,9.92
2018-12-23T12:25:15.343Z,9.68
2018-12-23T12:27:43.458Z,9.63
2018-12-23T12:30:11.781Z,9.70
2018-12-23T12:32:39.914Z,9.54
2018-12-23T12:35:08.228Z,9.53
2018-12-23T12:37:36.345Z,9.42
2018-12-23T12:40:04.668Z,9.15
2018-12-23T12:42:32.890Z,9.22
2018-12-23T12:45:01.028Z,9.13
2018-12-23T12:47:29.220Z,9.11
2018-12-23T12:49:57.582Z,9.22
2018-12-23T12:52:25.967Z,9.17
2018-12-23T12:54:54.156Z,9.07
2018-12-23T12:57:22.301Z,9.20
2018-12-23T12:59:50.486Z,9.19
2018-12-23T13:02:18.619Z,9.27
2018-12-23T13:04:46.818Z,9.28
2018-12-23T13:07:15.122Z,9.29
2018-12-23T13:09:43.256Z,9.30
2018-12-23T13:12:11.795Z,9.20
2018-12-23T13:14:39.966Z,9.37
2018-12-23T13:17:19.749Z,9.38
2018-12-23T13:19:47.980Z,9.41
2018-12-23T13:22:16.102Z,9.28
2018-12-23T13:24:44.250Z,9.29
2018-12-23T13:27:12.404Z,9.16
2018-12-23T13:29:40.541Z,9.22
2018-12-23T13:32:08.762Z,9.18
2018-12-23T13:34:37.083Z,8.88
2018-12-23T13:37:05.206Z,8.75
2018-12-23T13:39:33.402Z,8.69
2018-12-23T13:42:14.900Z,8.59
2018-12-23T13:46:56.027Z,8.62
2018-12-23T13:51:39.005Z,8.77
2018-12-23T13:54:16.668Z,8.73
2018-12-23T13:57:27.353Z,8.62
2018-12-23T14:02:13.994Z,8.69
2018-12-23T14:04:52.293Z,8.63
2018-12-23T14:07:31.458Z,8.47
2018-12-23T14:10:13.658Z,8.46
2018-12-23T14:12:41.809Z,8.55
2018-12-23T14:15:10.027Z,8.45
2018-12-23T14:17:38.165Z,8.42
2018-12-23T14:20:07.143Z,8.45
2018-12-23T14:22:35.550Z,8.40
2018-12-23T14:25:04.217Z,8.40
2018-12-23T14:27:32.558Z,8.46
2018-12-23T14:30:00.693Z,8.59
2018-12-23T14:32:29.030Z,8.54
2018-12-23T14:34:57.166Z,8.55
2018-12-23T14:37:25.544Z,8.52
2018-12-23T14:39:53.938Z,8.49
2018-12-23T14:42:22.280Z,8.52
2018-12-23T14:44:50.397Z,8.52
2018-12-23T14:47:18.694Z,8.45
2018-12-23T14:49:46.812Z,8.37
2018-12-23T14:52:15.005Z,8.36
2018-12-23T14:54:43.277Z,8.36
2018-12-23T14:57:11.409Z,8.32
2018-12-23T14:59:39.573Z,8.26
2018-12-23T15:02:07.836Z,8.28
2018-12-23T15:04:36.022Z,8.35
2018-12-23T15:07:04.204Z,8.33
2018-12-23T15:09:34.317Z,8.34
2018-12-23T15:12:02.562Z,8.36
2018-12-23T15:14:30.688Z,8.47
2018-12-23T15:16:58.874Z,8.47
2018-12-23T15:19:27.114Z,8.49
2018-12-23T15:21:55.412Z,8.54
2018-12-23T15:24:23.569Z,8.57
2018-12-23T15:26:51.698Z,8.48
2018-12-23T15:29:19.910Z,8.35
2018-12-23T15:31:48.161Z,8.52
2018-12-23T15:34:16.378Z,8.61
2018-12-23T15:36:44.514Z,8.62
2018-12-23T15:39:12.651Z,8.72
2018-12-23T15:41:41.032Z,8.72
2018-12-23T15:44:09.176Z,8.64
2018-12-23T15:46:38.600Z,8.77
2018-12-23T15:49:06.756Z,8.87
2018-12-23T15:51:34.862Z,8.93
2018-12-23T15:54:03.057Z,8.92
2018-12-23T15:56:31.238Z,8.82
2018-12-23T15:58:59.389Z,8.68
2018-12-23T16:01:27.640Z,8.63
2018-12-23T16:03:55.757Z,8.61
2018-12-23T16:06:24.026Z,8.57
2018-12-23T16:08:52.393Z,8.50
2018-12-23T16:11:20.519Z,8.46
2018-12-23T16:13:48.746Z,8.38
2018-12-23T16:16:16.898Z,8.41
2018-12-23T16:18:45.068Z,8.39
2018-12-23T16:21:13.191Z,8.33
2018-12-23T16:23:41.489Z,8.49
2018-12-23T16:26:09.765Z,8.57
2018-12-23T16:28:37.956Z,8.70
2018-12-23T16:31:06.165Z,8.63
2018-12-23T16:33:34.404Z,8.54
2018-12-23T16:36:02.567Z,8.34
2018-12-23T16:38:30.694Z,8.38
2018-12-23T16:40:58.812Z,8.39
2018-12-23T16:43:27.022Z,8.33
2018-12-23T16:45:55.708Z,8.33
2018-12-23T16:48:23.910Z,8.37
2018-12-23T16:50:52.042Z,8.51
2018-12-23T16:53:20.230Z,8.50
2018-12-23T16:55:48.450Z,8.54
2018-12-23T16:58:16.681Z,8.68
2018-12-23T17:00:44.920Z,8.81
2018-12-23T17:03:13.032Z,8.99
2018-12-23T17:05:41.335Z,9.25
2018-12-23T17:08:10.532Z,9.30
2018-12-23T17:10:39.277Z,9.59
2018-12-23T17:13:07.586Z,9.71
2018-12-23T17:15:35.750Z,10.11
2018-12-23T17:18:04.457Z,10.38
2018-12-23T17:20:32.713Z,10.50
2018-12-23T17:23:01.004Z,10.68
2018-12-23T17:25:29.288Z,10.89
2018-12-23T17:27:57.431Z,11.08
2018-12-23T17:30:25.715Z,11.15
2018-12-23T17:32:54.072Z,11.17
2018-12-23T17:35:22.261Z,11.30
2018-12-23T17:37:50.449Z,11.30
2018-12-23T17:40:18.801Z,11.39
2018-12-23T17:42:46.928Z,11.43
2018-12-23T17:45:15.189Z,11.50
2018-12-23T17:47:43.425Z,11.53
2018-12-23T17:50:11.798Z,11.52
2018-12-23T17:52:39.942Z,11.61
2018-12-23T17:55:08.139Z,11.60
2018-12-23T17:57:36.274Z,11.60
2018-12-23T18:00:05.595Z,11.54
2018-12-23T18:02:34.061Z,11.70
2018-12-23T18:05:02.231Z,11.72
2018-12-23T18:07:30.341Z,11.69
2018-12-23T18:09:59.436Z,11.70
2018-12-23T18:12:27.681Z,11.72
2018-12-23T18:14:56.016Z,11.69
2018-12-23T18:17:24.317Z,11.66
2018-12-23T18:19:52.910Z,11.73
2018-12-23T18:22:21.051Z,11.75
2018-12-23T18:24:49.221Z,11.79
2018-12-23T18:27:17.524Z,11.80
2018-12-23T18:29:45.898Z,11.76
2018-12-23T18:32:14.263Z,11.79
2018-12-23T18:34:43.256Z,11.81
2018-12-23T18:37:11.997Z,11.80
2018-12-23T18:39:40.125Z,11.83
2018-12-23T18:42:08.286Z,11.89
2018-12-23T18:44:36.422Z,11.91
2018-12-23T18:47:04.554Z,11.96
2018-12-23T18:49:32.767Z,11.99
2018-12-23T18:52:01.035Z,12.02
2018-12-23T18:54:29.173Z,12.01
2018-12-23T18:57:06.619Z,11.95
2018-12-23T18:59:38.807Z,11.94
2018-12-23T19:02:12.001Z,11.98
2018-12-23T19:04:40.117Z,11.91
2018-12-23T19:07:08.271Z,11.88
2018-12-23T19:10:44.027Z,11.84
2018-12-23T19:13:22.161Z,11.82
2018-12-23T19:16:03.608Z,11.76
2018-12-23T19:18:43.739Z,11.67
2018-12-23T19:23:28.159Z,11.63
2018-12-23T19:27:11.200Z,11.59
2018-12-23T19:30:22.749Z,11.59
2018-12-23T19:33:04.777Z,11.57
2018-12-23T19:35:53.523Z,11.57
2018-12-23T19:38:34.192Z,11.58
2018-12-23T19:41:13.816Z,11.56
2018-12-23T19:44:01.315Z,11.60
2018-12-23T19:46:45.234Z,11.59
2018-12-23T19:49:25.302Z,11.66
2018-12-23T19:52:06.303Z,11.68
2018-12-23T19:54:53.266Z,11.74
2018-12-23T19:57:52.043Z,11.75
2018-12-23T20:00:36.139Z,11.76
2018-12-23T20:03:24.250Z,11.71
2018-12-23T20:06:03.587Z,11.72
2018-12-23T20:10:46.419Z,11.67
2018-12-23T20:13:29.659Z,11.65
2018-12-23T20:16:17.935Z,11.68
2018-12-23T20:18:57.413Z,11.70
2018-12-23T20:21:46.157Z,11.71
2018-12-23T20:25:30.197Z,11.78
2018-12-23T20:28:16.130Z,11.84
2018-12-23T20:31:18.189Z,11.90
2018-12-23T20:36:03.232Z,11.94
2018-12-23T20:38:41.216Z,11.97
2018-12-23T20:42:20.792Z,11.95
2018-12-23T20:47:07.061Z,11.90
2018-12-23T20:51:51.242Z,11.94
2018-12-23T20:54:36.267Z,11.92
2018-12-23T20:57:20.719Z,11.90
2018-12-23T21:00:36.317Z,11.85
2018-12-23T21:03:16.761Z,11.94
2018-12-23T21:05:58.575Z,11.98
2018-12-23T21:10:45.986Z,12.01
2018-12-23T21:14:23.995Z,12.12
2018-12-23T21:17:38.672Z,12.18
2018-12-23T21:20:18.204Z,12.23
2018-12-23T21:22:57.304Z,12.26
2018-12-23T21:25:52.037Z,12.28
2018-12-23T21:28:36.942Z,12.28
2018-12-23T21:31:16.550Z,12.32
2018-12-23T21:33:57.801Z,12.30
2018-12-23T21:36:35.460Z,12.25
2018-12-23T21:39:20.132Z,12.30
2018-12-23T21:42:03.210Z,12.35
2018-12-23T21:44:44.518Z,12.29
2018-12-23T21:47:27.665Z,12.29
2018-12-23T21:50:17.906Z,12.24
2018-12-23T21:53:12.931Z,12.29
2018-12-23T21:55:56.820Z,12.27
2018-12-23T22:03:53.249Z,12.27
2018-12-23T22:06:58.635Z,12.26
2018-12-23T22:10:10.922Z,12.20
2018-12-23T22:13:23.924Z,12.11
2018-12-23T22:15:53.887Z,12.15
2018-12-23T22:18:23.406Z,12.26
2018-12-23T22:20:52.490Z,12.16
2018-12-23T22:23:21.481Z,12.16
2018-12-23T22:25:52.111Z,12.12
2018-12-23T22:28:21.664Z,12.07
2018-12-23T22:30:51.095Z,12.06
2018-12-23T22:33:19.993Z,12.03
2018-12-23T22:35:48.884Z,11.96
2018-12-23T22:38:17.722Z,11.92
2018-12-23T22:41:13.803Z,11.92
2018-12-23T22:43:42.623Z,11.92
2018-12-23T22:46:11.530Z,12.01
2018-12-23T22:48:40.378Z,12.08
2018-12-23T22:51:09.258Z,12.24
2018-12-23T22:53:38.179Z,12.31
2018-12-23T22:56:07.127Z,12.36
2018-12-23T22:58:36.101Z,12.36
2018-12-23T23:01:05.393Z,12.38
2018-12-23T23:03:34.286Z,12.49
2018-12-23T23:06:03.294Z,12.55
2018-12-23T23:08:32.312Z,12.64
2018-12-23T23:11:01.139Z,12.66
2018-12-23T23:13:29.956Z,12.62
2018-12-23T23:15:58.862Z,12.61
2018-12-23T23:18:27.735Z,12.62
2018-12-23T23:20:56.657Z,12.60
2018-12-23T23:23:25.653Z,12.55
2018-12-23T23:25:54.581Z,12.52
2018-12-23T23:28:23.585Z,12.49
2018-12-23T23:30:53.151Z,12.43
2018-12-23T23:33:24.077Z,12.42
2018-12-23T23:35:53.386Z,12.38
2018-12-23T23:38:22.231Z,12.35
2018-12-23T23:40:51.106Z,12.38
2018-12-23T23:43:20.864Z,12.44
2018-12-23T23:45:49.719Z,12.38
2018-12-23T23:48:18.689Z,12.36
2018-12-23T23:50:47.579Z,12.35
2018-12-23T23:53:16.576Z,12.33
2018-12-23T23:55:45.466Z,12.37
2018-12-23T23:58:14.697Z,12.38
